createdAt,value
2023-05-03T00:00:40.684Z,638.00
2023-05-03T00:01:40.695Z,639.00
2023-05-03T00:02:40.878Z,639.00
2023-05-03T00:03:40.681Z,637.00
2023-05-03T00:04:40.735Z,638.00
2023-05-03T00:05:40.915Z,638.00
2023-05-03T00:06:40.780Z,640.00
2023-05-03T00:07:41.600Z,639.00
2023-05-03T00:08:40.746Z,638.00
2023-05-03T00:09:40.780Z,637.00
2023-05-03T00:10:41.141Z,636.00
2023-05-03T00:11:40.841Z,638.00
2023-05-03T00:12:40.866Z,638.00
2023-05-03T00:13:40.855Z,637.00
2023-05-03T00:14:40.898Z,638.00
2023-05-03T00:15:40.902Z,639.00
2023-05-03T00:16:40.949Z,638.00
2023-05-03T00:17:41.040Z,637.00
2023-05-03T00:18:40.976Z,638.00
2023-05-03T00:19:41.009Z,638.00
2023-05-03T00:20:41.108Z,638.00
2023-05-03T00:21:41.082Z,639.00
2023-05-03T00:22:41.066Z,640.00
2023-05-03T00:23:41.107Z,639.00
2023-05-03T00:24:41.112Z,639.00
2023-05-03T00:25:41.157Z,639.00
2023-05-03T00:26:41.156Z,641.00
2023-05-03T00:27:41.195Z,642.00
2023-05-03T00:28:41.261Z,642.00
2023-05-03T00:29:41.271Z,641.00
2023-05-03T00:30:41.334Z,640.00
2023-05-03T00:31:41.346Z,639.00
2023-05-03T00:32:41.341Z,639.00
2023-05-03T00:33:41.348Z,637.00
2023-05-03T00:34:41.378Z,637.00
2023-05-03T00:35:41.379Z,638.00
2023-05-03T00:36:41.393Z,638.00
2023-05-03T00:37:42.150Z,640.00
2023-05-03T00:38:41.452Z,639.00
2023-05-03T00:39:41.461Z,636.00
2023-05-03T00:40:41.487Z,635.00
2023-05-03T00:41:41.495Z,632.00
2023-05-03T00:42:41.571Z,631.00
2023-05-03T00:43:41.541Z,631.00
2023-05-03T00:44:41.593Z,631.00
2023-05-03T00:45:41.628Z,632.00
2023-05-03T00:46:41.666Z,631.00
2023-05-03T00:47:41.629Z,630.00
2023-05-03T00:48:41.634Z,630.00
2023-05-03T00:49:41.655Z,631.00
2023-05-03T00:50:41.671Z,629.00
2023-05-03T00:51:41.688Z,630.00
2023-05-03T00:52:41.728Z,629.00
2023-05-03T00:53:41.782Z,628.00
2023-05-03T00:54:41.752Z,627.00
2023-05-03T00:55:41.820Z,627.00
2023-05-03T00:56:50.997Z,627.00
2023-05-03T00:57:42.817Z,629.00
2023-05-03T00:58:41.806Z,630.00
2023-05-03T00:59:41.792Z,629.00
2023-05-03T01:00:41.812Z,632.00
2023-05-03T01:01:41.854Z,629.00
2023-05-03T01:02:41.945Z,627.00
2023-05-03T01:03:42.009Z,627.00
2023-05-03T01:04:43.410Z,627.00
2023-05-03T01:05:41.802Z,628.00
2023-05-03T01:06:41.829Z,629.00
2023-05-03T01:07:41.743Z,628.00
2023-05-03T01:08:41.743Z,629.00
2023-05-03T01:09:41.787Z,628.00
2023-05-03T01:10:41.742Z,630.00
2023-05-03T01:11:41.704Z,630.00
2023-05-03T01:12:41.736Z,629.00
2023-05-03T01:13:41.698Z,629.00
2023-05-03T01:14:41.722Z,629.00
2023-05-03T01:15:41.677Z,630.00
2023-05-03T01:16:41.788Z,631.00
2023-05-03T01:17:42.233Z,628.00
2023-05-03T01:18:41.683Z,628.00
2023-05-03T01:19:41.651Z,627.00
2023-05-03T01:20:41.667Z,625.00
2023-05-03T01:21:41.655Z,624.00
2023-05-03T01:22:41.663Z,622.00
2023-05-03T01:23:41.617Z,623.00
2023-05-03T01:24:41.637Z,624.00
2023-05-03T01:25:41.619Z,625.00
2023-05-03T01:26:41.624Z,626.00
2023-05-03T01:27:41.605Z,626.00
2023-05-03T01:28:41.598Z,626.00
2023-05-03T01:29:41.603Z,627.00
2023-05-03T01:30:41.596Z,627.00
2023-05-03T01:31:41.627Z,630.00
2023-05-03T01:32:41.681Z,629.00
2023-05-03T01:33:41.549Z,627.00
2023-05-03T01:34:41.576Z,625.00
2023-05-03T01:35:41.544Z,625.00
2023-05-03T01:36:41.542Z,625.00
2023-05-03T01:37:41.525Z,627.00
2023-05-03T01:38:41.520Z,626.00
2023-05-03T01:39:41.513Z,626.00
2023-05-03T01:40:41.519Z,625.00
2023-05-03T01:41:41.490Z,624.00
2023-05-03T01:42:41.493Z,624.00
2023-05-03T01:43:41.502Z,624.00
2023-05-03T01:44:41.486Z,624.00
2023-05-03T01:45:41.518Z,627.00
2023-05-03T01:46:41.479Z,626.00
2023-05-03T01:47:41.513Z,624.00
2023-05-03T01:48:41.460Z,624.00
2023-05-03T01:49:41.468Z,624.00
2023-05-03T01:50:41.456Z,623.00
2023-05-03T01:51:41.423Z,622.00
2023-05-03T01:52:41.437Z,623.00
2023-05-03T01:53:41.426Z,623.00
2023-05-03T01:54:41.402Z,622.00
2023-05-03T01:55:41.394Z,621.00
2023-05-03T01:56:41.408Z,621.00
2023-05-03T01:57:41.407Z,623.00
2023-05-03T01:58:41.401Z,623.00
2023-05-03T01:59:41.376Z,624.00
2023-05-03T02:00:41.428Z,624.00
2023-05-03T02:01:41.385Z,623.00
2023-05-03T02:02:41.376Z,623.00
2023-05-03T02:03:41.343Z,622.00
2023-05-03T02:04:41.389Z,621.00
2023-05-03T02:05:41.340Z,622.00
2023-05-03T02:06:41.397Z,622.00
2023-05-03T02:07:41.329Z,621.00
2023-05-03T02:08:41.326Z,621.00
2023-05-03T02:09:41.320Z,621.00
2023-05-03T02:10:41.324Z,621.00
2023-05-03T02:11:41.291Z,623.00
2023-05-03T02:12:41.330Z,621.00
2023-05-03T02:13:41.291Z,621.00
2023-05-03T02:14:41.295Z,622.00
2023-05-03T02:15:41.265Z,622.00
2023-05-03T02:16:41.276Z,621.00
2023-05-03T02:17:41.284Z,619.00
2023-05-03T02:18:41.272Z,621.00
2023-05-03T02:19:41.256Z,618.00
2023-05-03T02:20:41.270Z,617.00
2023-05-03T02:21:41.274Z,617.00
2023-05-03T02:22:41.249Z,615.00
2023-05-03T02:23:41.256Z,616.00
2023-05-03T02:24:41.284Z,616.00
2023-05-03T02:25:41.254Z,617.00
2023-05-03T02:26:41.266Z,614.00
2023-05-03T02:27:41.319Z,615.00
2023-05-03T02:28:41.310Z,620.00
2023-05-03T02:29:41.280Z,620.00
2023-05-03T02:30:41.312Z,619.00
2023-05-03T02:31:41.306Z,620.00
2023-05-03T02:32:41.319Z,620.00
2023-05-03T02:33:41.369Z,621.00
2023-05-03T02:34:41.324Z,621.00
2023-05-03T02:35:41.297Z,618.00
2023-05-03T02:36:41.307Z,618.00
2023-05-03T02:37:41.676Z,616.00
2023-05-03T02:38:41.333Z,615.00
2023-05-03T02:39:41.307Z,615.00
2023-05-03T02:40:41.317Z,617.00
2023-05-03T02:41:41.338Z,617.00
2023-05-03T02:42:41.311Z,614.00
2023-05-03T02:43:41.320Z,613.00
2023-05-03T02:44:41.305Z,612.00
2023-05-03T02:45:41.328Z,612.00
2023-05-03T02:46:41.399Z,613.00
2023-05-03T02:47:41.682Z,614.00
2023-05-03T02:48:41.301Z,613.00
2023-05-03T02:49:41.285Z,614.00
2023-05-03T02:50:41.303Z,613.00
2023-05-03T02:51:41.323Z,612.00
2023-05-03T02:52:41.292Z,613.00
2023-05-03T02:53:41.297Z,613.00
2023-05-03T02:54:41.283Z,610.00
2023-05-03T02:55:41.297Z,610.00
2023-05-03T02:56:41.316Z,613.00
2023-05-03T02:57:42.359Z,614.00
2023-05-03T02:58:41.295Z,615.00
2023-05-03T02:59:41.305Z,617.00
2023-05-03T03:00:41.284Z,616.00
2023-05-03T03:01:41.386Z,615.00
2023-05-03T03:02:41.408Z,614.00
2023-05-03T03:03:41.426Z,613.00
2023-05-03T03:04:41.329Z,615.00
2023-05-03T03:05:42.204Z,616.00
2023-05-03T03:06:41.370Z,616.00
2023-05-03T03:07:41.330Z,616.00
2023-05-03T03:08:41.276Z,616.00
2023-05-03T03:09:41.302Z,616.00
2023-05-03T03:10:41.342Z,616.00
2023-05-03T03:11:41.301Z,615.00
2023-05-03T03:12:41.311Z,617.00
2023-05-03T03:13:41.359Z,616.00
2023-05-03T03:14:41.297Z,616.00
2023-05-03T03:15:41.362Z,617.00
2023-05-03T03:16:41.337Z,617.00
2023-05-03T03:17:41.337Z,616.00
2023-05-03T03:18:41.320Z,617.00
2023-05-03T03:19:41.281Z,616.00
2023-05-03T03:20:41.318Z,616.00
2023-05-03T03:21:41.321Z,616.00
2023-05-03T03:22:41.287Z,617.00
2023-05-03T03:23:41.306Z,617.00
2023-05-03T03:24:41.317Z,615.00
2023-05-03T03:25:41.342Z,616.00
2023-05-03T03:26:41.310Z,615.00
2023-05-03T03:27:41.338Z,614.00
2023-05-03T03:28:41.360Z,612.00
2023-05-03T03:29:41.309Z,613.00
2023-05-03T03:30:41.337Z,609.00
2023-05-03T03:31:41.410Z,608.00
2023-05-03T03:32:41.424Z,608.00
2023-05-03T03:33:41.402Z,607.00
2023-05-03T03:34:41.500Z,609.00
2023-05-03T03:35:41.439Z,608.00
2023-05-03T03:36:41.445Z,606.00
2023-05-03T03:37:41.473Z,607.00
2023-05-03T03:38:41.488Z,607.00
2023-05-03T03:39:41.449Z,608.00
2023-05-03T03:40:41.483Z,609.00
2023-05-03T03:41:41.498Z,610.00
2023-05-03T03:42:41.456Z,609.00
2023-05-03T03:43:41.498Z,609.00
2023-05-03T03:44:41.456Z,610.00
2023-05-03T03:45:41.462Z,609.00
2023-05-03T03:46:41.495Z,608.00
2023-05-03T03:47:41.506Z,608.00
2023-05-03T03:48:41.525Z,608.00
2023-05-03T03:49:41.494Z,607.00
2023-05-03T03:50:41.506Z,608.00
2023-05-03T03:51:41.520Z,604.00
2023-05-03T03:52:41.492Z,605.00
2023-05-03T03:53:41.513Z,607.00
2023-05-03T03:54:41.500Z,606.00
2023-05-03T03:55:41.498Z,605.00
2023-05-03T03:56:41.509Z,605.00
2023-05-03T03:57:41.536Z,604.00
2023-05-03T03:58:41.508Z,603.00
2023-05-03T03:59:41.519Z,602.00
2023-05-03T04:00:41.547Z,599.00
2023-05-03T04:01:41.585Z,601.00
2023-05-03T04:02:41.704Z,603.00
2023-05-03T04:03:41.683Z,604.00
2023-05-03T04:04:41.622Z,605.00
2023-05-03T04:05:41.689Z,603.00
2023-05-03T04:06:41.701Z,604.00
2023-05-03T04:07:41.664Z,604.00
2023-05-03T04:08:41.684Z,604.00
2023-05-03T04:09:41.710Z,604.00
2023-05-03T04:10:41.736Z,605.00
2023-05-03T04:11:41.723Z,603.00
2023-05-03T04:12:41.739Z,603.00
2023-05-03T04:13:41.775Z,604.00
2023-05-03T04:14:41.772Z,602.00
2023-05-03T04:15:41.828Z,603.00
2023-05-03T04:16:41.842Z,604.00
2023-05-03T04:17:41.885Z,602.00
2023-05-03T04:18:41.827Z,603.00
2023-05-03T04:19:41.852Z,603.00
2023-05-03T04:20:41.818Z,603.00
2023-05-03T04:21:41.842Z,603.00
2023-05-03T04:22:41.851Z,603.00
2023-05-03T04:23:41.867Z,603.00
2023-05-03T04:24:41.890Z,604.00
2023-05-03T04:25:41.911Z,606.00
2023-05-03T04:26:41.928Z,604.00
2023-05-03T04:27:41.940Z,605.00
2023-05-03T04:28:41.962Z,605.00
2023-05-03T04:29:41.930Z,606.00
2023-05-03T04:30:41.998Z,605.00
2023-05-03T04:31:41.968Z,603.00
2023-05-03T04:32:42.052Z,602.00
2023-05-03T04:33:42.009Z,603.00
2023-05-03T04:34:42.020Z,601.00
2023-05-03T04:35:42.044Z,601.00
2023-05-03T04:36:42.031Z,602.00
2023-05-03T04:37:42.233Z,603.00
2023-05-03T04:38:42.052Z,602.00
2023-05-03T04:39:42.058Z,602.00
2023-05-03T04:40:42.095Z,603.00
2023-05-03T04:41:42.116Z,600.00
2023-05-03T04:42:42.110Z,602.00
2023-05-03T04:43:42.101Z,601.00
2023-05-03T04:44:42.157Z,601.00
2023-05-03T04:45:42.126Z,601.00
2023-05-03T04:46:42.282Z,598.00
2023-05-03T04:47:42.226Z,597.00
2023-05-03T04:48:42.134Z,598.00
2023-05-03T04:49:42.142Z,597.00
2023-05-03T04:50:42.122Z,598.00
2023-05-03T04:51:42.183Z,596.00
2023-05-03T04:52:42.147Z,597.00
2023-05-03T04:53:42.220Z,596.00
2023-05-03T04:54:42.191Z,595.00
2023-05-03T04:55:42.219Z,595.00
2023-05-03T04:56:42.736Z,594.00
2023-05-03T04:57:42.252Z,592.00
2023-05-03T04:58:42.227Z,590.00
2023-05-03T04:59:42.262Z,590.00
2023-05-03T05:00:42.270Z,590.00
2023-05-03T05:01:42.300Z,588.00
2023-05-03T05:02:42.372Z,589.00
2023-05-03T05:03:42.357Z,587.00
2023-05-03T05:04:42.295Z,587.00
2023-05-03T05:05:42.300Z,587.00
2023-05-03T05:06:42.376Z,585.00
2023-05-03T05:07:43.261Z,584.00
2023-05-03T05:08:42.334Z,585.00
2023-05-03T05:09:42.374Z,585.00
2023-05-03T05:10:42.391Z,586.00
2023-05-03T05:11:42.344Z,586.00
2023-05-03T05:12:42.366Z,584.00
2023-05-03T05:13:42.445Z,583.00
2023-05-03T05:14:42.365Z,582.00
2023-05-03T05:15:42.436Z,579.00
2023-05-03T05:16:42.605Z,577.00
2023-05-03T05:17:42.836Z,574.00
2023-05-03T05:18:42.416Z,573.00
2023-05-03T05:19:42.409Z,573.00
2023-05-03T05:20:42.428Z,573.00
2023-05-03T05:21:42.444Z,572.00
2023-05-03T05:22:42.404Z,571.00
2023-05-03T05:23:42.433Z,572.00
2023-05-03T05:24:42.405Z,575.00
2023-05-03T05:25:42.495Z,576.00
2023-05-03T05:26:42.388Z,576.00
2023-05-03T05:27:42.393Z,577.00
2023-05-03T05:28:42.360Z,577.00
2023-05-03T05:29:42.372Z,579.00
2023-05-03T05:30:42.435Z,585.00
2023-05-03T05:31:43.059Z,596.00
2023-05-03T05:32:42.409Z,603.00
2023-05-03T05:33:42.747Z,668.00
2023-05-03T05:34:45.662Z,867.00
2023-05-03T05:35:42.490Z,792.00
2023-05-03T05:36:42.363Z,809.00
2023-05-03T05:37:42.376Z,873.00
2023-05-03T05:38:42.412Z,862.00
2023-05-03T05:39:42.364Z,864.00
2023-05-03T05:40:42.375Z,878.00
2023-05-03T05:41:42.347Z,887.00
2023-05-03T05:42:42.402Z,953.00
2023-05-03T05:43:42.347Z,952.00
2023-05-03T05:44:43.274Z,1094.00
2023-05-03T05:45:42.329Z,1122.00
2023-05-03T05:46:42.786Z,1026.00
2023-05-03T05:47:42.324Z,1008.00
2023-05-03T05:48:43.259Z,992.00
2023-05-03T05:49:42.340Z,977.00
2023-05-03T05:50:42.297Z,878.00
2023-05-03T05:51:42.263Z,842.00
2023-05-03T05:52:42.804Z,818.00
2023-05-03T05:53:42.263Z,798.00
2023-05-03T05:54:42.279Z,787.00
2023-05-03T05:55:42.252Z,782.00
2023-05-03T05:56:42.277Z,761.00
2023-05-03T05:57:42.256Z,749.00
2023-05-03T05:58:42.280Z,739.00
2023-05-03T05:59:42.324Z,725.00
2023-05-03T06:00:42.252Z,720.00
2023-05-03T06:01:42.242Z,708.00
2023-05-03T06:02:42.523Z,698.00
2023-05-03T06:03:42.291Z,693.00
2023-05-03T06:04:42.238Z,692.00
2023-05-03T06:05:42.479Z,687.00
2023-05-03T06:06:42.804Z,687.00
2023-05-03T06:07:42.375Z,689.00
2023-05-03T06:08:42.232Z,698.00
2023-05-03T06:09:42.285Z,700.00
2023-05-03T06:10:42.162Z,701.00
2023-05-03T06:11:42.371Z,703.00
2023-05-03T06:12:42.165Z,700.00
2023-05-03T06:13:42.161Z,698.00
2023-05-03T06:14:51.761Z,700.00
2023-05-03T06:15:43.146Z,701.00
2023-05-03T06:16:42.174Z,705.00
2023-05-03T06:17:42.239Z,711.00
2023-05-03T06:18:42.119Z,716.00
2023-05-03T06:19:44.440Z,722.00
2023-05-03T06:20:42.237Z,730.00
2023-05-03T06:21:42.199Z,737.00
2023-05-03T06:22:42.095Z,742.00
2023-05-03T06:23:42.120Z,745.00
2023-05-03T06:24:42.044Z,753.00
2023-05-03T06:25:42.050Z,762.00
2023-05-03T06:26:42.042Z,769.00
2023-05-03T06:27:42.038Z,780.00
2023-05-03T06:28:41.993Z,796.00
2023-05-03T06:29:42.004Z,810.00
2023-05-03T06:30:42.023Z,826.00
2023-05-03T06:31:42.075Z,833.00
2023-05-03T06:32:42.121Z,844.00
2023-05-03T06:33:42.002Z,850.00
2023-05-03T06:34:41.966Z,952.00
2023-05-03T06:35:41.971Z,969.00
2023-05-03T06:36:42.052Z,974.00
2023-05-03T06:37:41.973Z,1002.00
2023-05-03T06:38:41.962Z,1016.00
2023-05-03T06:39:41.958Z,1005.00
2023-05-03T06:40:42.105Z,991.00
2023-05-03T06:41:41.950Z,997.00
2023-05-03T06:42:41.948Z,987.00
2023-05-03T06:43:42.092Z,1003.00
2023-05-03T06:44:42.767Z,959.00
2023-05-03T06:45:41.978Z,956.00
2023-05-03T06:46:41.969Z,953.00
2023-05-03T06:47:42.053Z,924.00
2023-05-03T06:48:41.913Z,891.00
2023-05-03T06:49:42.006Z,892.00
2023-05-03T06:50:41.850Z,892.00
2023-05-03T06:51:41.916Z,898.00
2023-05-03T06:52:43.320Z,906.00
2023-05-03T06:53:41.854Z,908.00
2023-05-03T06:54:41.834Z,910.00
2023-05-03T06:55:41.844Z,910.00
2023-05-03T06:56:41.796Z,889.00
2023-05-03T06:57:42.274Z,873.00
2023-05-03T06:58:41.792Z,866.00
2023-05-03T06:59:41.859Z,861.00
2023-05-03T07:00:42.795Z,855.00
2023-05-03T07:01:41.808Z,851.00
2023-05-03T07:02:41.842Z,847.00
2023-05-03T07:03:42.130Z,850.00
2023-05-03T07:04:42.317Z,858.00
2023-05-03T07:05:41.770Z,857.00
2023-05-03T07:06:55.428Z,846.00
2023-05-03T07:07:42.852Z,846.00
2023-05-03T07:08:41.714Z,852.00
2023-05-03T07:09:43.552Z,856.00
2023-05-03T07:10:41.786Z,856.00
2023-05-03T07:11:41.699Z,861.00
2023-05-03T07:12:41.689Z,928.00
2023-05-03T07:13:41.740Z,915.00
2023-05-03T07:14:41.702Z,904.00
2023-05-03T07:15:41.653Z,909.00
2023-05-03T07:16:41.821Z,922.00
2023-05-03T07:17:41.718Z,936.00
2023-05-03T07:18:41.792Z,965.00
2023-05-03T07:19:41.627Z,983.00
2023-05-03T07:20:41.652Z,904.00
2023-05-03T07:21:41.682Z,911.00
2023-05-03T07:22:41.752Z,920.00
2023-05-03T07:23:41.618Z,918.00
2023-05-03T07:24:41.920Z,897.00
2023-05-03T07:25:41.673Z,888.00
2023-05-03T07:26:43.788Z,879.00
2023-05-03T07:27:41.664Z,885.00
2023-05-03T07:28:41.631Z,887.00
2023-05-03T07:29:41.764Z,888.00
2023-05-03T07:30:41.613Z,890.00
2023-05-03T07:31:41.608Z,939.00
2023-05-03T07:32:41.653Z,972.00
2023-05-03T07:33:41.930Z,983.00
2023-05-03T07:34:41.583Z,991.00
2023-05-03T07:35:41.556Z,997.00
2023-05-03T07:36:44.440Z,991.00
2023-05-03T07:37:41.808Z,971.00
2023-05-03T07:38:41.850Z,959.00
2023-05-03T07:39:41.540Z,980.00
2023-05-03T07:40:41.574Z,1105.00
2023-05-03T07:41:41.527Z,1111.00
2023-05-03T07:42:41.517Z,1092.00
2023-05-03T07:43:42.287Z,1077.00
2023-05-03T07:44:41.544Z,1067.00
2023-05-03T07:45:41.681Z,1053.00
2023-05-03T07:46:41.573Z,966.00
2023-05-03T07:47:41.568Z,940.00
2023-05-03T07:48:41.489Z,874.00
2023-05-03T07:49:41.613Z,860.00
2023-05-03T07:50:41.467Z,850.00
2023-05-03T07:51:41.509Z,843.00
2023-05-03T07:52:41.487Z,836.00
2023-05-03T07:53:41.496Z,844.00
2023-05-03T07:54:41.446Z,844.00
2023-05-03T07:55:41.485Z,841.00
2023-05-03T07:56:41.428Z,838.00
2023-05-03T07:57:41.541Z,828.00
2023-05-03T07:58:42.583Z,815.00
2023-05-03T07:59:41.433Z,809.00
2023-05-03T08:00:41.426Z,807.00
2023-05-03T08:01:41.406Z,806.00
2023-05-03T08:02:41.659Z,809.00
2023-05-03T08:03:41.580Z,812.00
2023-05-03T08:04:41.673Z,813.00
2023-05-03T08:05:41.595Z,815.00
2023-05-03T08:06:42.382Z,821.00
2023-05-03T08:07:41.606Z,825.00
2023-05-03T08:08:41.710Z,829.00
2023-05-03T08:09:41.664Z,826.00
2023-05-03T08:10:41.850Z,822.00
2023-05-03T08:11:43.901Z,823.00
2023-05-03T08:12:41.952Z,823.00
2023-05-03T08:13:41.998Z,826.00
2023-05-03T08:14:42.039Z,840.00
2023-05-03T08:15:42.139Z,884.00
2023-05-03T08:16:42.118Z,967.00
2023-05-03T08:17:42.163Z,940.00
2023-05-03T08:18:42.167Z,925.00
2023-05-03T08:19:42.217Z,913.00
2023-05-03T08:20:42.201Z,898.00
2023-05-03T08:21:42.319Z,884.00
2023-05-03T08:22:42.597Z,878.00
2023-05-03T08:23:42.356Z,1010.00
2023-05-03T08:24:42.415Z,1136.00
2023-05-03T08:25:42.387Z,1110.00
2023-05-03T08:26:42.561Z,1115.00
2023-05-03T08:27:42.529Z,1180.00
2023-05-03T08:28:42.604Z,1213.00
2023-05-03T08:29:42.504Z,1228.00
2023-05-03T08:30:43.299Z,1211.00
2023-05-03T08:31:42.629Z,1123.00
2023-05-03T08:32:42.651Z,1099.00
2023-05-03T08:33:42.712Z,1070.00
2023-05-03T08:34:42.659Z,1047.00
2023-05-03T08:35:42.687Z,1031.00
2023-05-03T08:36:42.763Z,1020.00
2023-05-03T08:37:42.990Z,1001.00
2023-05-03T08:38:42.864Z,976.00
2023-05-03T08:39:42.874Z,966.00
2023-05-03T08:40:42.963Z,1126.00
2023-05-03T08:41:42.938Z,1132.00
2023-05-03T08:42:43.032Z,1191.00
2023-05-03T08:43:43.117Z,1219.00
2023-05-03T08:44:43.066Z,1235.00
2023-05-03T08:45:43.254Z,1235.00
2023-05-03T08:46:43.198Z,1568.00
2023-05-03T08:47:43.299Z,1238.00
2023-05-03T08:48:43.378Z,1209.00
2023-05-03T08:49:43.313Z,1124.00
2023-05-03T08:50:43.317Z,1113.00
2023-05-03T08:51:43.345Z,1107.00
2023-05-03T08:52:45.302Z,1108.00
2023-05-03T08:53:43.418Z,1109.00
2023-05-03T08:54:45.266Z,1106.00
2023-05-03T08:55:43.561Z,1094.00
2023-05-03T08:56:43.654Z,1079.00
2023-05-03T08:57:43.666Z,1075.00
2023-05-03T08:58:43.708Z,1068.00
2023-05-03T08:59:43.778Z,1055.00
2023-05-03T09:00:43.977Z,1041.00
2023-05-03T09:01:43.913Z,1029.00
2023-05-03T09:02:43.988Z,1022.00
2023-05-03T09:03:43.917Z,1015.00
2023-05-03T09:04:44.344Z,1006.00
2023-05-03T09:05:43.945Z,1004.00
2023-05-03T09:06:43.993Z,999.00
2023-05-03T09:07:44.292Z,996.00
2023-05-03T09:08:44.024Z,995.00
2023-05-03T09:09:46.898Z,986.00
2023-05-03T09:10:44.814Z,986.00
2023-05-03T09:11:44.025Z,1058.00
2023-05-03T09:12:44.011Z,1079.00
2023-05-03T09:13:44.016Z,1109.00
2023-05-03T09:14:44.068Z,1111.00
2023-05-03T09:15:43.977Z,1093.00
2023-05-03T09:16:44.001Z,1074.00
2023-05-03T09:17:44.007Z,1072.00
2023-05-03T09:18:43.954Z,1064.00
2023-05-03T09:19:43.968Z,1056.00
2023-05-03T09:20:43.964Z,1040.00
2023-05-03T09:21:43.950Z,1022.00
2023-05-03T09:22:43.970Z,1031.00
2023-05-03T09:23:43.932Z,1038.00
2023-05-03T09:24:43.953Z,1041.00
2023-05-03T09:25:43.981Z,1037.00
2023-05-03T09:26:43.907Z,1029.00
2023-05-03T09:27:43.918Z,1030.00
2023-05-03T09:28:43.930Z,1052.00
2023-05-03T09:29:43.885Z,1036.00
2023-05-03T09:30:43.915Z,1049.00
2023-05-03T09:31:44.058Z,1037.00
2023-05-03T09:32:43.913Z,1137.00
2023-05-03T09:33:43.941Z,1144.00
2023-05-03T09:34:43.878Z,1211.00
2023-05-03T09:35:43.860Z,1214.00
2023-05-03T09:36:44.550Z,1201.00
2023-05-03T09:37:43.832Z,1185.00
2023-05-03T09:38:44.895Z,1171.00
2023-05-03T09:39:43.832Z,1168.00
2023-05-03T09:40:43.831Z,1161.00
2023-05-03T09:41:43.852Z,1144.00
2023-05-03T09:42:44.380Z,1119.00
2023-05-03T09:43:43.858Z,1067.00
2023-05-03T09:44:43.941Z,1043.00
2023-05-03T09:45:43.967Z,1036.00
2023-05-03T09:46:44.011Z,1026.00
2023-05-03T09:47:44.843Z,1023.00
2023-05-03T09:48:44.161Z,972.00
2023-05-03T09:49:44.354Z,972.00
2023-05-03T09:50:44.237Z,967.00
2023-05-03T09:51:44.402Z,936.00
2023-05-03T09:52:44.878Z,867.00
2023-05-03T09:53:44.351Z,863.00
2023-05-03T09:54:44.445Z,850.00
2023-05-03T09:55:44.475Z,835.00
2023-05-03T09:56:44.508Z,823.00
2023-05-03T09:57:44.879Z,803.00
2023-05-03T09:58:44.785Z,793.00
2023-05-03T09:59:44.612Z,790.00
2023-05-03T10:00:44.720Z,785.00
2023-05-03T10:01:44.761Z,793.00
2023-05-03T10:02:44.818Z,822.00
2023-05-03T10:03:44.827Z,910.00
2023-05-03T10:04:44.776Z,920.00
2023-05-03T10:05:44.815Z,924.00
2023-05-03T10:06:44.884Z,915.00
2023-05-03T10:07:44.849Z,864.00
2023-05-03T10:08:44.874Z,859.00
2023-05-03T10:09:44.924Z,848.00
2023-05-03T10:10:45.015Z,845.00
2023-05-03T10:11:44.971Z,834.00
2023-05-03T10:12:44.996Z,799.00
2023-05-03T10:13:45.222Z,817.00
2023-05-03T10:14:45.854Z,811.00
2023-05-03T10:15:45.171Z,806.00
2023-05-03T10:16:45.209Z,800.00
2023-05-03T10:17:48.318Z,792.00
2023-05-03T10:18:45.307Z,792.00
2023-05-03T10:19:45.257Z,785.00
2023-05-03T10:20:45.279Z,776.00
2023-05-03T10:21:45.250Z,773.00
2023-05-03T10:22:45.259Z,784.00
2023-05-03T10:23:45.355Z,793.00
2023-05-03T10:24:45.364Z,807.00
2023-05-03T10:25:45.284Z,892.00
2023-05-03T10:26:45.310Z,913.00
2023-05-03T10:27:45.221Z,923.00
2023-05-03T10:28:46.134Z,1083.00
2023-05-03T10:29:45.474Z,1172.00
2023-05-03T10:30:45.368Z,1144.00
2023-05-03T10:31:45.336Z,1155.00
2023-05-03T10:32:45.477Z,1225.00
2023-05-03T10:33:45.270Z,1156.00
2023-05-03T10:34:46.450Z,948.00
2023-05-03T10:35:45.140Z,920.00
2023-05-03T10:36:49.861Z,903.00
2023-05-03T10:37:46.219Z,896.00
2023-05-03T10:38:45.125Z,884.00
2023-05-03T10:39:45.132Z,878.00
2023-05-03T10:40:45.141Z,878.00
2023-05-03T10:41:45.213Z,877.00
2023-05-03T10:42:45.143Z,871.00
2023-05-03T10:43:45.104Z,864.00
2023-05-03T10:44:45.125Z,858.00
2023-05-03T10:45:46.242Z,858.00
2023-05-03T10:46:45.304Z,852.00
2023-05-03T10:47:45.295Z,842.00
2023-05-03T10:48:45.290Z,830.00
2023-05-03T10:49:46.332Z,817.00
2023-05-03T10:50:45.422Z,822.00
2023-05-03T10:51:45.511Z,841.00
2023-05-03T10:52:45.572Z,839.00
2023-05-03T10:53:45.700Z,921.00
2023-05-03T10:54:45.612Z,913.00
2023-05-03T10:55:45.657Z,911.00
2023-05-03T10:56:45.705Z,841.00
2023-05-03T10:57:45.725Z,779.00
2023-05-03T10:58:45.844Z,765.00
2023-05-03T10:59:45.851Z,756.00
2023-05-03T11:00:45.898Z,750.00
2023-05-03T11:01:46.072Z,774.00
2023-05-03T11:02:46.004Z,799.00
2023-05-03T11:03:46.133Z,785.00
2023-05-03T11:04:46.072Z,781.00
2023-05-03T11:05:46.137Z,916.00
2023-05-03T11:06:46.233Z,818.00
2023-05-03T11:07:46.097Z,945.00
2023-05-03T11:08:46.349Z,1005.00
2023-05-03T11:09:47.646Z,1069.00
2023-05-03T11:10:46.176Z,882.00
2023-05-03T11:11:46.214Z,845.00
2023-05-03T11:12:46.243Z,860.00
2023-05-03T11:13:46.299Z,748.00
2023-05-03T11:14:46.348Z,681.00
2023-05-03T11:15:48.327Z,672.00
2023-05-03T11:16:46.980Z,672.00
2023-05-03T11:17:46.679Z,941.00
2023-05-03T11:18:46.629Z,1040.00
2023-05-03T11:19:46.522Z,1086.00
2023-05-03T11:20:46.646Z,1190.00
2023-05-03T11:21:48.243Z,1059.00
2023-05-03T11:22:46.735Z,951.00
2023-05-03T11:23:46.769Z,900.00
2023-05-03T11:24:46.839Z,824.00
2023-05-03T11:25:46.905Z,799.00
2023-05-03T11:26:46.945Z,796.00
2023-05-03T11:27:47.812Z,760.00
2023-05-03T11:28:47.356Z,745.00
2023-05-03T11:29:47.867Z,728.00
2023-05-03T11:30:47.148Z,665.00
2023-05-03T11:31:47.949Z,589.00
2023-05-03T11:32:47.331Z,530.00
2023-05-03T11:33:48.044Z,492.00
2023-05-03T11:34:47.262Z,466.00
2023-05-03T11:35:47.293Z,457.00
2023-05-03T11:36:47.310Z,453.00
2023-05-03T11:37:47.369Z,452.00
2023-05-03T11:38:47.856Z,444.00
2023-05-03T11:39:47.879Z,441.00
2023-05-03T11:40:47.480Z,428.00
2023-05-03T11:41:47.543Z,432.00
2023-05-03T11:42:47.603Z,435.00
2023-05-03T11:43:50.915Z,447.00
2023-05-03T11:44:48.885Z,502.00
2023-05-03T11:45:47.773Z,501.00
2023-05-03T11:46:47.810Z,497.00
2023-05-03T11:47:47.672Z,515.00
2023-05-03T11:48:47.633Z,524.00
2023-05-03T11:49:47.696Z,525.00
2023-05-03T11:50:47.814Z,526.00
2023-05-03T11:51:50.119Z,521.00
2023-05-03T11:52:47.859Z,520.00
2023-05-03T11:53:47.736Z,573.00
2023-05-03T11:54:54.893Z,533.00
2023-05-03T11:55:47.727Z,477.00
2023-05-03T11:56:47.763Z,477.00
2023-05-03T11:57:47.715Z,484.00
2023-05-03T11:58:47.721Z,487.00
2023-05-03T11:59:47.693Z,486.00
2023-05-03T12:00:47.736Z,488.00
2023-05-03T12:01:47.697Z,582.00
2023-05-03T12:02:47.728Z,706.00
2023-05-03T12:03:47.810Z,746.00
2023-05-03T12:04:48.221Z,678.00
2023-05-03T12:05:48.394Z,646.00
2023-05-03T12:06:48.788Z,638.00
2023-05-03T12:07:47.937Z,623.00
2023-05-03T12:08:48.231Z,614.00
2023-05-03T12:09:56.597Z,612.00
2023-05-03T12:10:49.718Z,609.00
2023-05-03T12:11:50.051Z,606.00
2023-05-03T12:12:51.026Z,604.00
2023-05-03T12:13:48.734Z,598.00
2023-05-03T12:14:47.698Z,592.00
2023-05-03T12:15:55.558Z,582.00
2023-05-03T12:16:50.447Z,572.00
2023-05-03T12:17:49.757Z,546.00
2023-05-03T12:18:48.238Z,533.00
2023-05-03T12:19:48.626Z,529.00
2023-05-03T12:21:59.185Z,511.00
2023-05-03T12:22:50.347Z,513.00
2023-05-03T12:23:50.070Z,511.00
2023-05-03T12:24:49.361Z,510.00
2023-05-03T12:25:49.238Z,503.00
2023-05-03T12:26:48.960Z,498.00